Latest Weather Observations for Moruya Airport

IDN60901

Issued at 6:51 pm EDT Wednesday 29 January 2020 (issued every 10 minutes, with the page automatically refreshed every 10 minutes)

About weather observations | Map of Canberra area stations | Latest observations for Canberra area | Other Formats
Station Details ID: 069148 Name: MORUYA AIRPORT AWS Lat: -35.90 Lon: 150.14 Height: 4.0 m
Data from the previous 72 hours. | See also: Recent months at Moruya Airport
Date/Time
EDT
Temp
°C
App
Temp
°C
Dew
Point
°C
Rel
Hum
%
Delta-T
°C
Wind Press
QNH
hPa
Press
MSL
hPa
Rain since
9am
mm
Dir  Spd
km/h
Gust
km/h
Spd
kts
Gust
kts
29/06:30pm 23.5 22.8 15.5 60 4.8 ENE 13 15 7 8 1016.8 1016.7 0.0
29/06:00pm 23.6 23.3 15.4 60 4.9 ENE 11 15 6 8 1016.6 1016.5 0.0
29/05:30pm 23.8 23.0 15.0 57 5.3 ENE 13 15 7 8 1016.7 1016.6 0.0
29/05:00pm 24.1 23.4 15.3 58 5.3 E 13 17 7 9 1016.8 1016.7 0.0
29/04:30pm 24.3 23.6 16.3 61 4.9 E 15 19 8 10 1017.0 1016.9 0.0
29/04:00pm 24.4 24.0 17.1 63 4.5 E 15 20 8 11 1016.9 1016.8 0.0
29/03:30pm 24.5 23.9 17.5 65 4.4 E 17 22 9 12 1017.0 1016.9 0.0
29/03:00pm 24.8 24.3 17.8 65 4.4 E 17 22 9 12 1017.0 1016.9 0.0
29/02:30pm 25.3 24.5 18.0 64 4.6 E 19 22 10 12 1016.8 1016.7 0.0
29/02:00pm 25.4 24.5 17.8 62 4.8 E 19 24 10 13 1016.7 1016.6 0.0
29/01:30pm 24.7 23.4 17.2 63 4.7 E 20 22 11 12 1016.6 1016.5 0.0
29/01:00pm 24.8 23.5 17.3 63 4.7 ENE 20 24 11 13 1016.7 1016.6 0.0
29/12:30pm 24.8 23.9 17.8 65 4.4 ENE 19 22 10 12 1016.7 1016.6 0.0
29/12:00pm 24.3 23.6 17.3 65 4.3 E 17 20 9 11 1017.0 1016.9 0.0
29/11:30am 23.9 23.4 17.9 69 3.8 E 17 19 9 10 1017.1 1017.0 0.0
29/11:00am 23.7 23.8 17.4 68 3.9 E 13 17 7 9 1017.2 1017.1 0.0
29/10:30am 23.5 24.0 17.5 69 3.7 E 11 15 6 8 1017.2 1017.1 0.0
29/10:00am 22.9 23.6 17.1 70 3.6 ENE 9 13 5 7 1017.0 1016.9 0.0
29/09:30am 22.8 23.5 17.0 70 3.6 ENE 9 13 5 7 1017.1 1017.0 0.0
29/09:18am 23.1 24.4 17.6 71 3.4 E 7 9 4 5 1017.1 1017.0 0.0
29/09:00am 21.9 24.1 17.5 76 2.7 SSW 2 7 1 4 1017.0 1016.9 0.0
29/08:30am 20.4 23.2 18.0 86 1.5 CALM 0 0 0 0 1016.9 1016.8 0.0
29/08:00am 19.1 22.0 18.1 94 0.6 CALM 0 0 0 0 1016.5 1016.4 0.0
29/07:30am 17.6 19.8 16.6 94 0.6 CALM 0 0 0 0 1016.2 1016.1 0.0
29/07:00am 16.7 18.6 15.7 94 0.6 CALM 0 0 0 0 1016.1 1016.0 0.0
29/06:30am 16.7 18.6 15.7 94 0.6 CALM 0 0 0 0 1015.8 1015.7 0.0
29/06:00am 17.0 17.9 16.0 94 0.6 WSW 6 7 3 4 1015.8 1015.7 0.0
29/05:30am 16.7 18.2 15.7 94 0.6 W 2 6 1 3 1015.7 1015.6 0.0
29/05:00am 16.0 17.6 15.0 94 0.6 CALM 0 0 0 0 1015.7 1015.6 0.0
29/04:30am 15.8 16.9 14.7 93 0.6 W 2 6 1 3 1015.7 1015.6 0.0
29/04:00am 16.2 17.8 14.9 92 0.7 CALM 0 0 0 0 1015.7 1015.6 0.0
29/03:30am 16.7 18.5 15.4 92 0.8 CALM 0 0 0 0 1015.9 1015.8 0.0
29/03:00am 16.7 18.4 15.1 90 0.9 CALM 0 6 0 3 1015.9 1015.8 0.0
29/02:30am 17.3 17.9 15.3 88 1.2 W 6 9 3 5 1015.8 1015.7 0.0
29/02:00am 18.1 18.4 16.1 88 1.2 WSW 9 9 5 5 1016.0 1015.9 0.0
29/01:30am 18.8 19.6 16.4 86 1.4 WSW 7 9 4 5 1016.3 1016.2 0.0
29/01:06am 19.4 20.2 16.4 83 1.8 SW 7 9 4 5 1016.5 1016.4 0.0
29/01:00am 19.5 20.4 16.5 83 1.8 SW 7 9 4 5 1016.6 1016.5 0.0
29/12:30am 20.2 20.8 16.8 81 2.1 SSW 9 11 5 6 1016.6 1016.5 0.0
29/12:19am 20.4 21.5 17.0 81 2.1 SSW 7 11 4 6 1016.8 1016.7 0.0
29/12:00am 20.6 21.7 17.0 80 2.2 SW 7 9 4 5 1016.7 1016.6 0.0
 
Date/Time
EDT
Temp
°C
App
Temp
°C
Dew
Point
°C
Rel
Hum
%
Delta-T
°C
Wind Press
QNH
hPa
Press
MSL
hPa
Rain since
9am
mm
Dir  Spd
km/h
Gust
km/h
Spd
kts
Gust
kts
28/11:30pm 21.0 21.8 17.2 79 2.3 SSW 9 13 5 7 1016.6 1016.5 0.0
28/11:00pm 21.0 22.1 17.2 79 2.3 SSW 7 11 4 6 1016.5 1016.4 0.0
28/10:30pm 21.2 22.0 17.4 79 2.3 SSW 9 13 5 7 1016.6 1016.5 0.0
28/10:00pm 21.2 21.8 17.6 80 2.2 SSW 11 15 6 8 1016.2 1016.1 0.0
28/09:30pm 21.3 21.9 17.7 80 2.2 SSW 11 15 6 8 1016.1 1016.0 0.0
28/09:00pm 21.5 21.9 18.1 81 2.1 S 13 17 7 9 1015.5 1015.4 0.0
28/08:30pm 21.6 21.9 17.8 79 2.4 S 13 20 7 11 1015.3 1015.2 0.0
28/08:00pm 21.7 21.5 17.7 78 2.5 S 15 20 8 11 1015.0 1014.9 0.0
28/07:30pm 21.7 21.2 17.7 78 2.5 S 17 22 9 12 1014.5 1014.4 0.0
28/07:00pm 21.8 20.8 17.6 77 2.6 S 19 24 10 13 1013.9 1013.8 0.0
28/06:30pm 21.9 21.4 17.7 77 2.6 S 17 24 9 13 1013.4 1013.3 0.0
28/06:11pm 21.5 21.0 17.7 79 2.3 S 17 24 9 13 1013.2 1013.1 0.0
28/06:00pm 21.5 21.0 17.7 79 2.3 S 17 26 9 14 1013.2 1013.1 0.0
28/05:30pm 21.3 20.3 17.9 81 2.1 S 20 28 11 15 1012.9 1012.8 0.0
28/05:00pm 21.3 20.0 18.1 82 2.0 S 22 30 12 16 1012.8 1012.7 0.0
28/04:30pm 21.2 19.5 18.2 83 1.9 S 24 33 13 18 1012.6 1012.5 0.0
28/04:00pm 21.4 19.0 18.2 82 2.0 S 28 39 15 21 1012.2 1012.1 0.0
28/03:30pm 21.9 20.7 18.5 81 2.1 SSE 22 32 12 17 1012.1 1012.0 0.0
28/03:00pm 21.9 20.3 18.3 80 2.3 S 24 33 13 18 1012.1 1012.0 0.0
28/02:30pm 22.0 19.0 18.6 81 2.1 S 32 41 17 22 1012.1 1012.0 0.0
28/02:00pm 22.4 20.3 19.0 81 2.2 S 28 37 15 20 1012.2 1012.1 0.0
28/01:30pm 22.4 21.2 19.2 82 2.0 SSE 24 35 13 19 1012.2 1012.1 0.0
28/01:18pm 22.5 19.9 19.5 83 1.9 SSE 32 39 17 21 1012.3 1012.2 0.0
28/01:00pm 23.1 21.2 20.1 83 1.9 SSE 30 39 16 21 1012.1 1012.0 0.0
28/12:30pm 23.6 21.9 19.9 80 2.4 SSE 28 35 15 19 1012.3 1012.2 0.0
28/12:00pm 24.8 24.1 19.6 73 3.3 SSE 22 28 12 15 1012.3 1012.2 0.0
28/11:30am 24.4 24.5 19.9 76 2.9 SE 19 24 10 13 1012.2 1012.1 0.0
28/11:00am 24.1 24.7 19.4 75 3.0 ESE 15 20 8 11 1012.2 1012.1 0.0
28/10:30am 24.1 24.6 19.2 74 3.1 ESE 15 17 8 9 1012.2 1012.1 0.0
28/10:00am 24.0 24.5 19.3 75 3.0 ESE 15 17 8 9 1012.5 1012.4 0.0
28/09:30am 23.7 24.8 18.8 74 3.1 ESE 11 13 6 7 1012.8 1012.7 0.0
28/09:00am 23.5 25.0 19.0 76 2.9 E 9 11 5 6 1012.9 1012.8 0.0
28/08:30am 23.2 25.1 18.9 77 2.7 ENE 7 11 4 6 1012.9 1012.8 0.0
28/08:00am 22.6 25.7 19.4 82 2.0 NW 2 9 1 5 1012.7 1012.6 0.0
28/07:30am 21.9 25.3 19.3 85 1.7 CALM 0 0 0 0 1013.0 1012.9 0.0
28/07:00am 21.6 24.9 19.0 85 1.6 CALM 0 0 0 0 1012.8 1012.7 0.0
28/06:30am 21.4 24.2 18.8 85 1.6 SW 2 9 1 5 1012.6 1012.5 0.0
28/06:00am 21.2 22.7 18.8 86 1.5 WSW 9 13 5 7 1012.6 1012.5 0.0
28/05:30am 21.1 22.5 18.7 86 1.5 SW 9 13 5 7 1012.5 1012.4 0.0
28/05:25am 21.1 22.5 18.7 86 1.5 SW 9 13 5 7 1012.5 1012.4 0.0
28/05:00am 21.1 23.0 18.9 87 1.4 SW 7 11 4 6 1012.5 1012.4 0.0
28/04:53am 21.1 22.6 18.9 87 1.4 WSW 9 11 5 6 1012.6 1012.5 0.0
28/04:30am 21.1 22.6 19.0 88 1.3 SW 9 13 5 7 1012.9 1012.8 0.0
28/04:00am 21.0 22.7 19.3 90 1.1 WSW 9 13 5 7 1013.1 1013.0 0.0
28/03:30am 20.9 22.6 19.4 91 1.0 SW 9 13 5 7 1013.2 1013.1 0.0
28/03:00am 21.0 22.8 19.5 91 1.0 WSW 9 13 5 7 1013.4 1013.3 0.0
28/02:30am 21.3 22.7 19.6 90 1.1 SW 11 13 6 7 1013.6 1013.5 0.0
28/02:00am 21.5 23.2 19.4 88 1.3 SSW 9 17 5 9 1013.7 1013.6 0.0
28/01:40am 21.7 23.4 19.4 87 1.5 SSW 9 15 5 8 1013.5 1013.4 0.0
28/01:30am 21.8 23.1 19.4 86 1.5 SW 11 15 6 8 1013.5 1013.4 0.0
28/01:00am 21.9 23.2 19.3 85 1.7 SSW 11 17 6 9 1013.8 1013.7 0.0
28/12:55am 21.9 22.7 19.1 84 1.8 SW 13 17 7 9 1013.8 1013.7 0.0
28/12:30am 22.0 23.3 19.2 84 1.8 SW 11 15 6 8 1014.1 1014.0 0.0
28/12:24am 22.0 23.3 19.2 84 1.8 SW 11 15 6 8 1014.1 1014.0 0.0
28/12:00am 22.1 23.8 19.3 84 1.8 SW 9 15 5 8 1014.2 1014.1 0.0
 
Date/Time
EDT
Temp
°C
App
Temp
°C
Dew
Point
°C
Rel
Hum
%
Delta-T
°C
Wind Press
QNH
hPa
Press
MSL
hPa
Rain since
9am
mm
Dir  Spd
km/h
Gust
km/h
Spd
kts
Gust
kts
27/11:44pm 22.1 23.4 19.3 84 1.8 SW 11 15 6 8 1014.4 1014.3 0.0
27/11:30pm 22.0 23.0 19.4 85 1.7 WSW 13 17 7 9 1014.5 1014.4 0.0
27/11:00pm 22.0 23.3 19.4 85 1.7 WSW 11 15 6 8 1014.8 1014.7 0.0
27/10:30pm 22.0 23.4 19.5 86 1.6 SW 11 15 6 8 1014.9 1014.8 0.0
27/10:00pm 21.9 23.3 19.6 87 1.5 WSW 11 15 6 8 1014.9 1014.8 0.0
27/09:30pm 21.8 23.3 19.7 88 1.3 SW 11 17 6 9 1014.6 1014.5 0.0
27/09:14pm 21.8 22.9 19.7 88 1.3 SW 13 20 7 11 1014.6 1014.5 0.0
27/09:12pm 21.8 22.5 19.7 88 1.3 SW 15 20 8 11 1014.6 1014.5 0.0
27/09:00pm 21.7 22.8 19.6 88 1.3 SW 13 15 7 8 1014.6 1014.5 0.0
27/08:31pm 21.6 22.0 19.9 90 1.1 SSW 17 20 9 11 1014.4 1014.3 0.0
27/08:30pm 21.5 21.9 19.8 90 1.1 SSW 17 20 9 11 1014.4 1014.3 0.0
27/08:13pm 21.4 21.9 20.0 92 0.9 SSW 17 22 9 12 1014.3 1014.2 0.0
27/08:00pm 21.4 22.0 20.2 93 0.8 SSW 17 26 9 14 1014.2 1014.1 0.0
27/07:30pm 21.7 20.6 20.2 91 1.0 S 26 35 14 19 1013.5 1013.4 0.0
27/07:00pm 23.1 23.0 19.9 82 2.1 S 20 32 11 17 1012.9 1012.8 0.0
27/06:30pm 23.1 22.6 19.9 82 2.1 S 22 32 12 17 1012.6 1012.5 0.0
27/06:00pm 23.4 23.3 20.0 81 2.2 S 20 32 11 17 1012.3 1012.2 0.0
27/05:30pm 23.6 24.1 20.1 81 2.3 S 17 24 9 13 1011.9 1011.8 0.0
27/05:00pm 23.7 24.2 20.0 80 2.4 SSE 17 22 9 12 1011.6 1011.5 0.0
27/04:30pm 23.8 24.1 19.7 78 2.6 SE 17 20 9 11 1011.6 1011.5 0.0
27/04:09pm 24.4 24.7 19.7 75 3.0 SE 17 22 9 12 1011.7 1011.6 0.0
27/04:00pm 24.6 25.3 19.7 74 3.2 ESE 15 20 8 11 1011.7 1011.6 0.0
27/03:30pm 24.6 25.7 19.7 74 3.2 E 13 17 7 9 1011.5 1011.4 0.0
27/03:00pm 24.4 24.8 19.0 72 3.4 ENE 15 17 8 9 1011.6 1011.5 0.0
27/02:30pm 24.3 24.1 18.5 70 3.7 ENE 17 20 9 11 1012.1 1012.0 0.0
27/02:00pm 25.0 24.5 19.1 70 3.8 ENE 20 22 11 12 1012.6 1012.5 0.0
27/01:30pm 24.8 24.0 18.5 68 4.0 E 20 24 11 13 1013.0 1012.9 0.0
27/01:00pm 24.7 23.4 18.2 67 4.1 E 22 24 12 13 1013.2 1013.1 0.0
27/12:30pm 24.1 22.9 17.6 67 4.0 ENE 20 24 11 13 1013.6 1013.5 0.0
27/12:00pm 24.1 23.4 18.3 70 3.7 ENE 19 20 10 11 1014.3 1014.2 0.0
27/11:30am 23.3 23.0 17.3 69 3.7 ENE 15 17 8 9 1014.8 1014.7 0.0
27/11:00am 23.3 22.9 17.1 68 3.8 NE 15 17 8 9 1014.9 1014.8 0.0
27/10:30am 22.3 23.0 17.0 72 3.2 NE 9 13 5 7 1015.2 1015.1 0.0
27/10:00am 21.7 22.0 16.0 70 3.4 NNE 9 11 5 6 1015.5 1015.4 0.0
27/09:30am 21.6 23.9 16.8 74 2.9 CALM 0 0 0 0 1015.7 1015.6 0.0
27/09:08am 21.2 23.4 16.6 75 2.8 CALM 0 7 0 4 1015.8 1015.7 0.0
27/09:00am 21.1 23.3 16.5 75 2.8 CALM 0 6 0 3 1015.9 1015.8 0.0
27/08:30am 20.8 22.6 16.4 76 2.7 SSW 2 6 1 3 1016.0 1015.9 0.0
27/08:00am 20.4 22.6 16.4 78 2.4 CALM 0 0 0 0 1015.9 1015.8 0.0
27/07:30am 20.1 22.4 16.7 81 2.1 CALM 0 0 0 0 1016.0 1015.9 0.0
27/07:00am 19.8 20.8 16.3 80 2.1 WSW 6 7 3 4 1015.9 1015.8 0.0
27/06:30am 19.7 20.5 16.3 81 2.0 WSW 7 9 4 5 1015.7 1015.6 0.0
27/06:00am 19.7 20.5 16.3 81 2.0 WSW 7 9 4 5 1015.7 1015.6 0.0
27/05:30am 19.6 20.6 16.4 82 1.9 WSW 6 6 3 3 1015.3 1015.2 0.0
27/05:00am 19.7 20.6 16.5 82 1.9 SW 7 11 4 6 1015.1 1015.0 0.0
27/04:30am 19.7 20.6 16.5 82 1.9 SW 7 9 4 5 1015.1 1015.0 0.0
27/04:29am 19.6 20.4 16.4 82 1.9 SW 7 9 4 5 1015.1 1015.0 0.0
27/04:24am 19.7 20.6 16.5 82 1.9 SW 7 9 4 5 1015.1 1015.0 0.0
27/04:00am 19.6 20.0 16.4 82 1.9 SW 9 11 5 6 1015.0 1014.9 0.0
27/03:49am 19.5 20.5 16.3 82 1.9 W 6 7 3 4 1015.0 1014.9 0.0
27/03:30am 19.6 20.0 16.4 82 1.9 WSW 9 11 5 6 1015.0 1014.9 0.0
27/03:00am 19.7 20.2 16.5 82 1.9 SW 9 13 5 7 1015.2 1015.1 0.0
27/02:30am 19.7 20.6 16.7 83 1.8 SSW 7 9 4 5 1015.4 1015.3 0.0
27/02:00am 19.4 20.3 16.6 84 1.7 SSW 7 11 4 6 1015.6 1015.5 0.0
27/01:30am 19.2 20.1 16.6 85 1.6 SW 7 11 4 6 1015.8 1015.7 0.0
27/01:00am 19.3 19.4 16.5 84 1.7 SW 11 15 6 8 1015.9 1015.8 0.0
27/12:30am 19.6 20.0 16.4 82 1.9 SW 9 13 5 7 1016.1 1016.0 0.0
27/12:00am 19.9 19.6 16.5 81 2.0 WSW 13 19 7 10 1016.5 1016.4 0.0
 
Date/Time
EDT
Temp
°C
App
Temp
°C
Dew
Point
°C
Rel
Hum
%
Delta-T
°C
Wind Press
QNH
hPa
Press
MSL
hPa
Rain since
9am
mm
Dir  Spd
km/h
Gust
km/h
Spd
kts
Gust
kts
26/11:30pm 20.6 20.1 16.8 79 2.3 SSW 15 19 8 10 1016.6 1016.5 0.0
26/11:00pm 20.9 20.3 16.7 77 2.5 SSW 15 20 8 11 1016.9 1016.8 0.0
26/10:30pm 21.3 20.8 16.0 72 3.2 S 13 20 7 11 1016.9 1016.8 0.0
26/10:00pm 21.8 20.8 15.6 68 3.7 SSW 15 22 8 12 1016.8 1016.7 0.0
26/09:30pm 22.1 20.2 15.7 67 3.8 S 20 30 11 16 1016.4 1016.3 0.0
26/09:00pm 22.2 21.1 17.8 76 2.7 S 20 30 11 16 1015.5 1015.4 0.0
26/08:30pm 22.4 20.4 18.4 78 2.5 S 26 41 14 22 1014.6 1014.5 0.0
26/08:00pm 22.7 21.1 19.3 81 2.2 S 26 37 14 20 1013.9 1013.8 0.0
26/07:30pm 23.0 20.2 19.0 78 2.5 S 32 43 17 23 1013.0 1012.9 0.0
26/07:08pm 23.5 20.9 19.6 79 2.5 S 32 41 17 22 1012.6 1012.5 0.0
26/07:00pm 23.8 21.7 20.5 82 2.1 S 32 43 17 23 1012.4 1012.3 0.0

Latest Capital City Observations: Canberra | Sydney | Melbourne | Brisbane | Adelaide | Perth | Hobart | Darwin

Other formats

Comma delimited format used in spreadsheet applications
http://www.bom.gov.au/fwo/IDN60903/IDN60903.95937.axf

JavaScript Object Notation format (JSON) in row-major order
http://www.bom.gov.au/fwo/IDN60903/IDN60903.95937.json

Data quality

Most of these data are generated automatically and are frequently updated. Quality checks on data are not normally performed. It is possible for incorrect values to appear. Refer to information at About Latest Weather Observations and please check the disclaimer before using these data.